createdAt,value
2018-02-15T00:00:59.084Z,2.10
2018-02-15T00:01:59.133Z,2.30
2018-02-15T00:02:59.176Z,2.20
2018-02-15T00:03:59.222Z,2.20
2018-02-15T00:04:59.268Z,2.10
2018-02-15T00:05:59.312Z,2.20
2018-02-15T00:06:59.359Z,2.00
2018-02-15T00:07:59.409Z,2.20
2018-02-15T00:08:59.450Z,2.10
2018-02-15T00:09:59.500Z,2.20
2018-02-15T00:10:59.547Z,2.60
2018-02-15T00:11:59.587Z,2.30
2018-02-15T00:12:59.643Z,2.10
2018-02-15T00:13:59.677Z,2.20
2018-02-15T00:14:59.740Z,2.20
2018-02-15T00:15:59.770Z,2.00
2018-02-15T00:16:59.817Z,2.20
2018-02-15T00:17:59.860Z,2.20
2018-02-15T00:18:59.907Z,2.00
2018-02-15T00:19:59.953Z,2.10
2018-02-15T00:20:59.998Z,2.20
2018-02-15T00:22:00.044Z,2.00
2018-02-15T00:23:00.089Z,2.20
2018-02-15T00:24:00.137Z,2.10
2018-02-15T00:25:00.185Z,2.10
2018-02-15T00:26:00.227Z,2.20
2018-02-15T00:27:00.274Z,2.10
2018-02-15T00:28:00.318Z,2.30
2018-02-15T00:29:00.385Z,2.20
2018-02-15T00:30:00.410Z,2.00
2018-02-15T00:31:00.452Z,2.20
2018-02-15T00:32:00.501Z,2.10
2018-02-15T00:33:00.546Z,2.20
2018-02-15T00:34:00.592Z,2.20
2018-02-15T00:35:00.638Z,2.20
2018-02-15T00:36:00.684Z,2.20
2018-02-15T00:37:00.731Z,2.30
2018-02-15T00:38:00.775Z,2.20
2018-02-15T00:39:00.822Z,2.20
2018-02-15T00:40:00.864Z,2.20
2018-02-15T00:41:00.912Z,2.00
2018-02-15T00:42:00.961Z,2.00
2018-02-15T00:43:01.004Z,2.10
2018-02-15T00:44:01.049Z,2.10
2018-02-15T00:45:01.101Z,2.20
2018-02-15T00:46:01.141Z,2.10
2018-02-15T00:47:01.187Z,2.10
2018-02-15T00:48:01.232Z,2.20
2018-02-15T00:49:01.281Z,2.30
2018-02-15T00:50:01.340Z,2.20
2018-02-15T00:51:01.370Z,2.10
2018-02-15T00:52:01.416Z,2.20
2018-02-15T00:53:01.461Z,2.20
2018-02-15T00:54:01.506Z,2.10
2018-02-15T00:55:01.553Z,2.30
2018-02-15T00:56:01.597Z,2.00
2018-02-15T00:57:01.643Z,2.30
2018-02-15T00:58:01.689Z,2.30
2018-02-15T00:59:01.755Z,2.30
2018-02-15T01:00:01.787Z,2.40
2018-02-15T01:01:01.826Z,2.30
2018-02-15T01:02:01.875Z,2.20
2018-02-15T01:03:01.918Z,2.20
2018-02-15T01:04:01.963Z,2.00
2018-02-15T01:05:02.008Z,2.10
2018-02-15T01:06:02.055Z,2.10
2018-02-15T01:07:02.100Z,2.20
2018-02-15T01:08:02.151Z,2.10
2018-02-15T01:09:02.192Z,2.10
2018-02-15T01:10:02.238Z,2.10
2018-02-15T01:11:02.283Z,2.10
2018-02-15T01:12:02.323Z,2.20
2018-02-15T01:13:02.374Z,2.10
2018-02-15T01:14:02.420Z,2.00
2018-02-15T01:15:02.466Z,2.20
2018-02-15T01:16:02.511Z,2.00
2018-02-15T01:17:02.557Z,2.30
2018-02-15T01:18:02.603Z,2.00
2018-02-15T01:19:02.650Z,2.20
2018-02-15T01:20:02.695Z,2.30
2018-02-15T01:21:02.740Z,2.10
2018-02-15T01:22:02.802Z,2.30
2018-02-15T01:23:02.830Z,2.30
2018-02-15T01:24:02.877Z,2.10
2018-02-15T01:25:02.922Z,2.10
2018-02-15T01:26:02.968Z,2.40
2018-02-15T01:27:03.014Z,2.00
2018-02-15T01:28:03.063Z,2.10
2018-02-15T01:29:03.106Z,2.10
2018-02-15T01:30:03.151Z,2.10
2018-02-15T01:31:03.199Z,2.20
2018-02-15T01:32:03.242Z,2.00
2018-02-15T01:33:03.287Z,2.00
2018-02-15T01:34:03.334Z,2.10
2018-02-15T01:35:03.379Z,2.20
2018-02-15T01:36:03.427Z,2.20
2018-02-15T01:37:03.470Z,2.10
2018-02-15T01:38:03.516Z,2.50
2018-02-15T01:39:03.563Z,2.10
2018-02-15T01:40:03.607Z,2.40
2018-02-15T01:41:03.655Z,2.30
2018-02-15T01:42:03.698Z,2.20
2018-02-15T01:43:03.745Z,2.20
2018-02-15T01:44:03.791Z,2.10
2018-02-15T01:45:03.837Z,2.20
2018-02-15T01:46:03.881Z,2.10
2018-02-15T01:47:03.926Z,2.10
2018-02-15T01:48:03.974Z,2.30
2018-02-15T01:49:04.060Z,2.00
2018-02-15T01:50:04.064Z,2.00
2018-02-15T01:51:04.110Z,2.00
2018-02-15T01:52:04.157Z,2.10
2018-02-15T01:53:04.201Z,2.30
2018-02-15T01:54:04.953Z,2.10
2018-02-15T01:55:04.293Z,2.10
2018-02-15T01:56:04.339Z,2.20
2018-02-15T01:57:04.384Z,2.00
2018-02-15T01:58:04.430Z,2.10
2018-02-15T01:59:04.477Z,2.20
2018-02-15T02:00:04.521Z,1.90
2018-02-15T02:01:04.565Z,2.10
2018-02-15T02:02:04.612Z,2.10
2018-02-15T02:03:04.656Z,2.10
2018-02-15T02:04:04.704Z,2.10
2018-02-15T02:05:04.753Z,2.10
2018-02-15T02:06:04.796Z,2.20
2018-02-15T02:07:04.840Z,2.30
2018-02-15T02:08:04.893Z,2.20
2018-02-15T02:09:04.931Z,1.90
2018-02-15T02:10:04.974Z,2.30
2018-02-15T02:11:05.024Z,2.10
2018-02-15T02:12:05.070Z,2.10
2018-02-15T02:13:05.115Z,2.10
2018-02-15T02:14:05.160Z,2.20
2018-02-15T02:15:05.204Z,2.10
2018-02-15T02:16:05.256Z,2.20
2018-02-15T02:17:05.299Z,2.00
2018-02-15T02:18:05.343Z,1.90
2018-02-15T02:19:05.389Z,2.00
2018-02-15T02:20:05.435Z,2.10
2018-02-15T02:21:05.478Z,2.20
2018-02-15T02:22:05.525Z,2.20
2018-02-15T02:23:05.574Z,2.20
2018-02-15T02:24:05.609Z,2.10
2018-02-15T02:25:05.661Z,2.30
2018-02-15T02:26:05.715Z,2.20
2018-02-15T02:27:05.753Z,2.20
2018-02-15T02:28:05.795Z,2.10
2018-02-15T02:29:05.844Z,1.90
2018-02-15T02:30:05.892Z,2.00
2018-02-15T02:31:05.954Z,2.20
2018-02-15T02:32:05.983Z,1.90
2018-02-15T02:33:06.022Z,2.20
2018-02-15T02:34:06.074Z,2.20
2018-02-15T02:35:06.120Z,2.00
2018-02-15T02:36:06.167Z,2.30
2018-02-15T02:37:06.211Z,2.10
2018-02-15T02:38:06.256Z,2.20
2018-02-15T02:39:06.302Z,1.90
2018-02-15T02:40:06.352Z,2.00
2018-02-15T02:41:06.392Z,2.30
2018-02-15T02:42:06.446Z,2.10
2018-02-15T02:43:06.485Z,2.20
2018-02-15T02:44:06.536Z,2.00
2018-02-15T02:45:06.575Z,2.10
2018-02-15T02:46:06.621Z,2.20
2018-02-15T02:47:06.669Z,2.10
2018-02-15T02:48:06.715Z,1.90
2018-02-15T02:49:06.760Z,2.00
2018-02-15T02:50:06.805Z,2.10
2018-02-15T02:51:06.850Z,2.20
2018-02-15T02:52:06.896Z,2.40
2018-02-15T02:53:06.941Z,2.00
2018-02-15T02:54:06.987Z,2.10
2018-02-15T02:55:07.033Z,2.00
2018-02-15T02:56:07.080Z,2.10
2018-02-15T02:57:07.125Z,1.90
2018-02-15T02:58:07.170Z,2.00
2018-02-15T02:59:07.215Z,2.10
2018-02-15T03:00:07.267Z,2.00
2018-02-15T03:01:07.302Z,2.10
2018-02-15T03:02:07.359Z,1.90
2018-02-15T03:03:07.397Z,1.90
2018-02-15T03:04:07.443Z,2.10
2018-02-15T03:05:07.491Z,2.20
2018-02-15T03:06:07.535Z,2.10
2018-02-15T03:07:07.574Z,2.20
2018-02-15T03:08:07.625Z,2.00
2018-02-15T03:09:07.682Z,2.10
2018-02-15T03:10:07.730Z,2.10
2018-02-15T03:11:07.763Z,2.10
2018-02-15T03:12:07.808Z,2.10
2018-02-15T03:13:07.860Z,1.90
2018-02-15T03:14:07.901Z,2.10
2018-02-15T03:15:07.936Z,2.00
2018-02-15T03:16:07.991Z,2.20
2018-02-15T03:17:08.034Z,2.10
2018-02-15T03:18:08.081Z,2.10
2018-02-15T03:19:08.135Z,2.10
2018-02-15T03:20:08.174Z,1.90
2018-02-15T03:21:08.219Z,2.00
2018-02-15T03:22:08.268Z,2.30
2018-02-15T03:23:08.307Z,2.10
2018-02-15T03:24:08.357Z,2.10
2018-02-15T03:25:08.401Z,2.10
2018-02-15T03:26:08.447Z,1.90
2018-02-15T03:27:08.491Z,1.90
2018-02-15T03:28:08.539Z,2.00
2018-02-15T03:29:08.585Z,2.10
2018-02-15T03:30:08.630Z,2.10
2018-02-15T03:31:08.664Z,2.30
2018-02-15T03:32:08.726Z,2.10
2018-02-15T03:33:08.767Z,2.10
2018-02-15T03:34:08.810Z,2.10
2018-02-15T03:35:08.859Z,2.20
2018-02-15T03:36:08.905Z,2.10
2018-02-15T03:37:08.949Z,1.90
2018-02-15T03:38:08.995Z,2.20
2018-02-15T03:39:09.042Z,2.20
2018-02-15T03:40:09.087Z,2.10
2018-02-15T03:41:09.141Z,2.30
2018-02-15T03:42:09.178Z,2.00
2018-02-15T03:43:09.224Z,1.90
2018-02-15T03:44:09.270Z,2.10
2018-02-15T03:45:09.315Z,2.00
2018-02-15T03:46:09.361Z,2.10
2018-02-15T03:47:09.406Z,2.30
2018-02-15T03:48:09.452Z,2.00
2018-02-15T03:49:09.497Z,1.90
2018-02-15T03:50:09.543Z,2.10
2018-02-15T03:51:09.588Z,2.20
2018-02-15T03:52:09.648Z,2.20
2018-02-15T03:53:09.681Z,2.20
2018-02-15T03:54:09.728Z,1.90
2018-02-15T03:55:09.776Z,2.10
2018-02-15T03:56:09.817Z,2.00
2018-02-15T03:57:09.862Z,2.00
2018-02-15T03:58:09.906Z,2.00
2018-02-15T03:59:09.950Z,2.00
2018-02-15T04:00:10.004Z,2.20
2018-02-15T04:01:10.044Z,1.90
2018-02-15T04:02:10.090Z,2.00
2018-02-15T04:03:10.140Z,1.90
2018-02-15T04:04:10.188Z,2.20
2018-02-15T04:05:10.258Z,1.90
2018-02-15T04:06:10.273Z,2.10
2018-02-15T04:07:10.319Z,2.00
2018-02-15T04:08:10.363Z,2.10
2018-02-15T04:09:10.409Z,2.00
2018-02-15T04:10:10.457Z,2.00
2018-02-15T04:11:10.501Z,2.00
2018-02-15T04:12:10.548Z,2.10
2018-02-15T04:13:10.593Z,2.10
2018-02-15T04:14:10.638Z,2.20
2018-02-15T04:15:10.684Z,2.10
2018-02-15T04:16:10.730Z,2.00
2018-02-15T04:17:10.775Z,2.10
2018-02-15T04:18:10.821Z,2.00
2018-02-15T04:19:10.866Z,2.00
2018-02-15T04:20:10.912Z,2.00
2018-02-15T04:21:10.965Z,2.00
2018-02-15T04:22:11.003Z,2.20
2018-02-15T04:23:11.050Z,2.10
2018-02-15T04:24:11.093Z,2.20
2018-02-15T04:25:11.140Z,2.00
2018-02-15T04:26:11.187Z,2.20
2018-02-15T04:27:11.227Z,2.10
2018-02-15T04:28:11.282Z,2.00
2018-02-15T04:29:11.321Z,1.90
2018-02-15T04:30:11.369Z,2.00
2018-02-15T04:31:11.414Z,2.00
2018-02-15T04:32:11.460Z,2.10
2018-02-15T04:33:11.496Z,2.00
2018-02-15T04:34:11.544Z,1.90
2018-02-15T04:35:11.596Z,2.10
2018-02-15T04:36:12.493Z,2.10
2018-02-15T04:37:11.687Z,2.00
2018-02-15T04:38:11.732Z,2.10
2018-02-15T04:39:11.779Z,2.30
2018-02-15T04:40:11.823Z,2.00
2018-02-15T04:41:11.870Z,2.00
2018-02-15T04:42:11.935Z,1.90
2018-02-15T04:43:11.964Z,2.00
2018-02-15T04:44:12.008Z,2.00
2018-02-15T04:45:12.052Z,2.00
2018-02-15T04:46:12.097Z,2.00
2018-02-15T04:47:12.143Z,1.90
2018-02-15T04:48:12.188Z,2.00
2018-02-15T04:49:12.236Z,2.10
2018-02-15T04:50:12.280Z,2.00
2018-02-15T04:51:12.328Z,2.20
2018-02-15T04:52:12.376Z,2.00
2018-02-15T04:53:12.418Z,2.00
2018-02-15T04:54:12.463Z,2.10
2018-02-15T04:55:12.512Z,1.80
2018-02-15T04:56:12.557Z,1.90
2018-02-15T04:57:12.614Z,2.10
2018-02-15T04:58:12.646Z,1.90
2018-02-15T04:59:12.691Z,2.00
2018-02-15T05:00:12.737Z,1.90
2018-02-15T05:01:12.782Z,2.20
2018-02-15T05:02:12.827Z,2.10
2018-02-15T05:03:12.887Z,2.10
2018-02-15T05:04:12.925Z,2.00
2018-02-15T05:05:12.964Z,2.00
2018-02-15T05:06:13.006Z,2.00
2018-02-15T05:07:13.056Z,2.00
2018-02-15T05:08:13.106Z,2.10
2018-02-15T05:09:13.147Z,2.00
2018-02-15T05:10:13.200Z,2.30
2018-02-15T05:11:13.239Z,2.10
2018-02-15T05:12:13.284Z,2.10
2018-02-15T05:13:13.327Z,2.10
2018-02-15T05:14:13.375Z,2.00
2018-02-15T05:15:13.421Z,2.10
2018-02-15T05:16:13.464Z,2.00
2018-02-15T05:17:13.512Z,2.10
2018-02-15T05:18:13.571Z,2.40
2018-02-15T05:19:13.603Z,2.10
2018-02-15T05:20:13.649Z,2.00
2018-02-15T05:21:13.695Z,1.90
2018-02-15T05:22:13.740Z,2.20
2018-02-15T05:23:13.786Z,2.00
2018-02-15T05:24:13.832Z,2.20
2018-02-15T05:25:13.877Z,2.00
2018-02-15T05:26:13.923Z,2.50
2018-02-15T05:27:13.968Z,1.90
2018-02-15T05:28:14.015Z,2.00
2018-02-15T05:29:14.060Z,2.30
2018-02-15T05:30:14.105Z,1.90
2018-02-15T05:31:14.150Z,2.20
2018-02-15T05:32:14.200Z,2.20
2018-02-15T05:33:14.242Z,2.20
2018-02-15T05:34:14.288Z,2.30
2018-02-15T05:35:14.333Z,2.20
2018-02-15T05:36:14.390Z,2.20
2018-02-15T05:37:14.424Z,2.10
2018-02-15T05:38:14.470Z,2.00
2018-02-15T05:39:14.517Z,1.90
2018-02-15T05:40:14.564Z,1.80
2018-02-15T05:41:14.607Z,2.10
2018-02-15T05:42:14.653Z,2.00
2018-02-15T05:43:14.700Z,2.30
2018-02-15T05:44:14.755Z,2.40
2018-02-15T05:45:14.789Z,2.10
2018-02-15T05:46:14.836Z,1.80
2018-02-15T05:47:14.879Z,2.00
2018-02-15T05:48:14.927Z,2.10
2018-02-15T05:49:14.972Z,2.40
2018-02-15T05:50:15.018Z,2.20
2018-02-15T05:51:15.065Z,2.10
2018-02-15T05:52:15.110Z,2.10
2018-02-15T05:53:15.155Z,2.10
2018-02-15T05:54:15.199Z,2.20
2018-02-15T05:55:15.247Z,2.10
2018-02-15T05:56:15.294Z,2.10
2018-02-15T05:57:15.331Z,2.10
2018-02-15T05:58:15.383Z,2.10
2018-02-15T05:59:15.432Z,2.00
2018-02-15T06:00:15.475Z,2.10
2018-02-15T06:01:15.518Z,1.90
2018-02-15T06:02:15.565Z,2.10
2018-02-15T06:03:15.614Z,2.30
2018-02-15T06:04:15.657Z,2.10
2018-02-15T06:05:15.702Z,2.20
2018-02-15T06:06:15.751Z,2.10
2018-02-15T06:07:15.801Z,2.10
2018-02-15T06:08:15.839Z,2.10
2018-02-15T06:09:15.882Z,2.10
2018-02-15T06:10:15.930Z,2.30
2018-02-15T06:11:15.976Z,2.00
2018-02-15T06:12:16.024Z,2.20
2018-02-15T06:13:16.067Z,2.20
2018-02-15T06:14:16.111Z,1.90
2018-02-15T06:15:16.158Z,2.10
2018-02-15T06:16:16.199Z,2.10
2018-02-15T06:17:16.248Z,2.30
2018-02-15T06:18:16.295Z,2.20
2018-02-15T06:19:16.341Z,2.10
2018-02-15T06:20:16.386Z,2.00
2018-02-15T06:21:16.437Z,2.00
2018-02-15T06:22:16.484Z,2.10
2018-02-15T06:23:16.523Z,2.30
2018-02-15T06:24:16.571Z,2.10
2018-02-15T06:25:16.615Z,2.30
2018-02-15T06:26:16.659Z,2.40
2018-02-15T06:27:16.705Z,2.20
2018-02-15T06:28:16.752Z,2.20
2018-02-15T06:29:16.796Z,1.90
2018-02-15T06:30:16.843Z,2.30
2018-02-15T06:31:16.888Z,2.20
2018-02-15T06:32:16.934Z,2.30
2018-02-15T06:33:16.978Z,2.30
2018-02-15T06:34:17.025Z,2.30
2018-02-15T06:35:17.070Z,2.20
2018-02-15T06:36:17.117Z,2.20
2018-02-15T06:37:17.160Z,2.20
2018-02-15T06:38:17.209Z,2.50
2018-02-15T06:39:17.255Z,2.10
2018-02-15T06:40:17.299Z,2.20
2018-02-15T06:41:17.344Z,2.30
2018-02-15T06:42:17.391Z,2.10
2018-02-15T06:43:17.436Z,2.10
2018-02-15T06:44:17.482Z,2.20
2018-02-15T06:45:17.519Z,2.20
2018-02-15T06:46:17.571Z,2.30
2018-02-15T06:47:17.618Z,2.50
2018-02-15T06:48:17.661Z,2.20
2018-02-15T06:49:17.711Z,2.00
2018-02-15T06:50:17.754Z,2.20
2018-02-15T06:51:17.801Z,2.20
2018-02-15T06:52:17.846Z,2.20
2018-02-15T06:53:17.891Z,2.10
2018-02-15T06:54:17.937Z,2.20
2018-02-15T06:55:17.983Z,2.30
2018-02-15T06:56:18.028Z,2.30
2018-02-15T06:57:18.073Z,2.30
2018-02-15T06:58:18.118Z,2.20
2018-02-15T06:59:18.165Z,2.40
2018-02-15T07:00:18.217Z,2.30
2018-02-15T07:01:18.256Z,2.20
2018-02-15T07:02:18.297Z,2.20
2018-02-15T07:03:18.346Z,2.20
2018-02-15T07:04:18.394Z,2.20
2018-02-15T07:05:18.450Z,2.00
2018-02-15T07:06:18.484Z,2.30
2018-02-15T07:07:18.529Z,2.40
2018-02-15T07:08:18.576Z,2.40
2018-02-15T07:09:18.621Z,2.30
2018-02-15T07:10:18.669Z,2.40
2018-02-15T07:11:18.720Z,2.20
2018-02-15T07:12:18.758Z,2.40
2018-02-15T07:13:18.803Z,2.50
2018-02-15T07:14:18.849Z,2.30
2018-02-15T07:15:18.895Z,2.30
2018-02-15T07:16:18.942Z,2.10
2018-02-15T07:17:18.990Z,2.10
2018-02-15T07:18:19.033Z,2.40
2018-02-15T07:19:19.075Z,2.40
2018-02-15T07:20:19.122Z,2.40
2018-02-15T07:21:19.180Z,2.10
2018-02-15T07:22:19.218Z,2.20
2018-02-15T07:23:19.260Z,2.00
2018-02-15T07:24:19.305Z,2.40
2018-02-15T07:25:19.346Z,2.60
2018-02-15T07:26:19.395Z,2.40
2018-02-15T07:27:19.442Z,2.50
2018-02-15T07:28:19.490Z,2.40
2018-02-15T07:29:19.546Z,2.80
2018-02-15T07:30:19.565Z,2.40
2018-02-15T07:31:19.627Z,2.20
2018-02-15T07:32:19.674Z,2.40
2018-02-15T07:33:19.715Z,2.30
2018-02-15T07:34:19.761Z,2.60
2018-02-15T07:35:19.888Z,2.10
2018-02-15T07:36:20.540Z,2.50
2018-02-15T07:37:19.899Z,2.20
2018-02-15T07:38:19.944Z,2.40
2018-02-15T07:39:19.989Z,2.30
2018-02-15T07:40:20.052Z,2.50
2018-02-15T07:41:20.080Z,2.50
2018-02-15T07:42:21.040Z,2.40
2018-02-15T07:43:20.171Z,2.20
2018-02-15T07:44:21.042Z,2.60
2018-02-15T07:45:20.262Z,2.40
2018-02-15T07:46:20.309Z,2.40
2018-02-15T07:47:20.355Z,2.20
2018-02-15T07:48:20.402Z,2.20
2018-02-15T07:49:20.446Z,2.40
2018-02-15T07:50:21.042Z,2.30
2018-02-15T07:51:20.537Z,2.10
2018-02-15T07:52:20.583Z,2.30
2018-02-15T07:53:20.628Z,2.60
2018-02-15T07:54:21.543Z,2.60
2018-02-15T07:55:20.722Z,2.50
2018-02-15T07:56:20.767Z,2.40
2018-02-15T07:57:20.832Z,2.70
2018-02-15T07:58:20.856Z,2.40
2018-02-15T07:59:20.902Z,2.50
2018-02-15T08:00:20.948Z,2.40
2018-02-15T08:01:21.007Z,2.60
2018-02-15T08:02:21.039Z,2.20
2018-02-15T08:03:21.086Z,2.60
2018-02-15T08:04:21.132Z,2.30
2018-02-15T08:05:21.171Z,2.70
2018-02-15T08:06:21.222Z,2.50
2018-02-15T08:07:21.270Z,2.30
2018-02-15T08:08:21.314Z,2.30
2018-02-15T08:09:21.371Z,2.30
2018-02-15T08:10:21.405Z,2.70
2018-02-15T08:11:21.460Z,2.30
2018-02-15T08:12:21.497Z,2.40
2018-02-15T08:13:21.542Z,2.40
2018-02-15T08:14:21.589Z,2.50
2018-02-15T08:15:21.634Z,2.40
2018-02-15T08:16:21.679Z,2.60
2018-02-15T08:17:21.725Z,2.30
2018-02-15T08:18:21.770Z,2.40
2018-02-15T08:19:21.829Z,2.60
2018-02-15T08:20:22.645Z,2.20
2018-02-15T08:21:21.907Z,2.30
2018-02-15T08:22:21.960Z,2.60
2018-02-15T08:23:22.000Z,2.20
2018-02-15T08:24:22.046Z,2.30
2018-02-15T08:25:22.089Z,2.50
2018-02-15T08:26:22.131Z,2.50
2018-02-15T08:27:22.182Z,2.40
2018-02-15T08:28:22.228Z,2.70
2018-02-15T08:29:22.273Z,2.40
2018-02-15T08:30:22.335Z,2.50
2018-02-15T08:31:22.365Z,2.40
2018-02-15T08:32:22.410Z,2.70
2018-02-15T08:33:22.457Z,2.60
2018-02-15T08:34:22.501Z,2.60
2018-02-15T08:37:53.489Z,2.50
2018-02-15T08:38:53.519Z,2.30
2018-02-15T08:40:45.686Z,2.50
2018-02-15T08:41:45.733Z,2.60
2018-02-15T08:43:37.941Z,2.40
2018-02-15T08:44:37.968Z,2.40
2018-02-15T08:46:30.144Z,2.40
2018-02-15T08:47:30.191Z,2.30
2018-02-15T08:49:22.365Z,2.60
2018-02-15T08:50:22.404Z,2.70
2018-02-15T08:52:14.615Z,2.70
2018-02-15T08:53:14.632Z,2.40
2018-02-15T08:55:06.791Z,2.60
2018-02-15T08:56:06.840Z,2.50
2018-02-15T08:57:59.206Z,2.60
2018-02-15T08:58:59.262Z,2.30
2018-02-15T09:00:51.425Z,2.50
2018-02-15T09:01:51.472Z,2.40
2018-02-15T09:03:43.649Z,2.50
2018-02-15T09:04:43.690Z,2.40
2018-02-15T09:06:35.858Z,2.30
2018-02-15T09:07:35.902Z,2.60
2018-02-15T09:09:28.068Z,2.60
2018-02-15T09:10:28.118Z,2.60
2018-02-15T09:12:21.294Z,2.60
2018-02-15T09:13:21.338Z,2.40
2018-02-15T09:15:14.511Z,2.60
2018-02-15T09:16:14.558Z,2.80
2018-02-15T09:18:07.850Z,2.70
2018-02-15T09:19:07.897Z,2.50
2018-02-15T09:21:01.073Z,2.70
2018-02-15T09:22:02.858Z,2.60
2018-02-15T09:26:07.545Z,2.40
2018-02-15T09:27:07.558Z,2.50
2018-02-15T09:29:00.739Z,2.60
2018-02-15T09:30:00.790Z,2.60
2018-02-15T09:31:53.970Z,2.70
2018-02-15T09:32:54.018Z,2.70
2018-02-15T09:34:47.200Z,2.40
2018-02-15T09:35:47.256Z,2.70
2018-02-15T09:37:40.440Z,2.70
2018-02-15T09:38:40.476Z,2.80
2018-02-15T09:40:32.648Z,2.50
2018-02-15T09:41:32.693Z,2.60
2018-02-15T09:43:24.851Z,2.60
2018-02-15T09:44:24.905Z,2.80
2018-02-15T09:46:17.080Z,2.70
2018-02-15T09:47:17.128Z,2.60
2018-02-15T09:49:09.284Z,2.60
2018-02-15T09:50:09.342Z,2.50
2018-02-15T09:52:01.508Z,2.60
2018-02-15T09:53:01.572Z,2.70
2018-02-15T09:54:53.739Z,2.60
2018-02-15T09:55:53.786Z,2.70
2018-02-15T09:57:45.958Z,2.80
2018-02-15T09:58:46.005Z,2.70
2018-02-15T10:00:38.175Z,2.60
2018-02-15T10:01:38.212Z,2.50
2018-02-15T10:03:30.378Z,2.60
2018-02-15T10:04:30.421Z,2.40
2018-02-15T10:06:22.598Z,2.70
2018-02-15T10:07:22.649Z,2.60
2018-02-15T10:09:14.825Z,2.70
2018-02-15T10:10:14.865Z,2.50
2018-02-15T10:12:07.037Z,2.50
2018-02-15T10:13:07.086Z,2.40
2018-02-15T10:14:59.748Z,2.60
2018-02-15T10:15:59.794Z,2.50
2018-02-15T10:17:51.971Z,2.50
2018-02-15T10:18:52.020Z,2.70
2018-02-15T10:20:44.188Z,2.70
2018-02-15T10:21:44.237Z,2.70
2018-02-15T10:23:36.408Z,2.50
2018-02-15T10:24:36.456Z,2.80
2018-02-15T10:26:28.630Z,2.40
2018-02-15T10:27:28.676Z,2.70
2018-02-15T10:29:21.872Z,2.50
2018-02-15T10:30:21.896Z,2.90
2018-02-15T10:32:15.150Z,2.40
2018-02-15T10:33:15.124Z,2.60
2018-02-15T10:35:08.307Z,2.80
2018-02-15T10:36:08.358Z,2.80
2018-02-15T10:38:01.527Z,2.70
2018-02-15T10:39:01.575Z,2.70
2018-02-15T10:40:54.745Z,2.50
2018-02-15T10:41:54.799Z,2.70
2018-02-15T10:43:46.951Z,2.80
2018-02-15T10:44:47.006Z,2.70
2018-02-15T10:46:39.176Z,2.70
2018-02-15T10:47:39.228Z,2.40
2018-02-15T10:49:31.399Z,2.40
2018-02-15T10:50:31.464Z,2.50
2018-02-15T10:52:23.620Z,2.50
2018-02-15T10:53:23.668Z,2.70
2018-02-15T10:55:15.840Z,2.60
2018-02-15T10:56:15.885Z,2.40
2018-02-15T10:58:08.051Z,2.80
2018-02-15T10:59:08.093Z,2.30
2018-02-15T11:01:01.304Z,2.60
2018-02-15T11:02:01.336Z,2.70
2018-02-15T11:03:53.506Z,2.50
2018-02-15T11:04:53.568Z,2.70
2018-02-15T11:06:45.931Z,2.60
2018-02-15T11:08:58.130Z,2.70
2018-02-15T11:11:10.403Z,2.60
2018-02-15T11:16:24.238Z,2.80
2018-02-15T11:21:38.153Z,2.60
2018-02-15T11:25:21.213Z,2.50
2018-02-15T11:27:33.409Z,2.40
2018-02-15T11:29:45.604Z,2.40
2018-02-15T11:33:28.675Z,2.70
2018-02-15T11:35:40.856Z,2.80
2018-02-15T11:40:54.762Z,2.70
2018-02-15T11:43:06.959Z,3.00
2018-02-15T11:45:20.217Z,2.80
2018-02-15T11:47:33.456Z,2.80
2018-02-15T11:49:46.638Z,2.60
2018-02-15T11:51:59.828Z,2.70
2018-02-15T11:54:13.035Z,2.70
2018-02-15T11:56:26.245Z,2.70
2018-02-15T12:00:12.003Z,2.90
2018-02-15T12:03:57.078Z,2.70
2018-02-15T12:09:14.019Z,2.80
2018-02-15T12:12:59.100Z,2.60
2018-02-15T12:16:44.168Z,2.50
2018-02-15T12:20:29.242Z,2.40
2018-02-15T12:24:14.322Z,2.50
2018-02-15T12:34:06.885Z,2.50
2018-02-15T12:39:23.819Z,2.40
2018-02-15T12:43:08.883Z,2.80
2018-02-15T12:46:53.964Z,2.60
2018-02-15T12:50:39.037Z,2.60
2018-02-15T12:54:24.110Z,2.70
2018-02-15T12:58:09.180Z,2.60
2018-02-15T13:01:54.261Z,2.50
2018-02-15T13:05:39.347Z,2.70
2018-02-15T13:09:24.432Z,2.60
2018-02-15T13:13:09.515Z,2.60
2018-02-15T13:16:54.595Z,2.70
2018-02-15T13:19:07.800Z,2.60
2018-02-15T13:22:53.363Z,2.80
2018-02-15T13:25:25.304Z,2.50
2018-02-15T13:32:14.110Z,2.90
2018-02-15T13:35:59.193Z,2.60
2018-02-15T13:39:44.262Z,2.60
2018-02-15T13:43:29.343Z,2.50
2018-02-15T13:48:46.300Z,2.80
2018-02-15T13:50:59.536Z,2.60
2018-02-15T13:53:12.715Z,2.50
2018-02-15T13:55:25.926Z,2.60
2018-02-15T13:59:11.018Z,2.70
2018-02-15T14:01:24.232Z,2.60
2018-02-15T14:03:37.410Z,2.60
2018-02-15T14:05:50.608Z,2.80
2018-02-15T14:08:03.815Z,2.80
2018-02-15T14:10:17.032Z,2.90
2018-02-15T14:12:30.245Z,2.30
2018-02-15T14:14:43.457Z,2.50
2018-02-15T14:16:56.677Z,2.60
2018-02-15T14:22:54.931Z,2.60
2018-02-15T14:25:08.140Z,2.80
2018-02-15T14:27:21.378Z,2.60
2018-02-15T14:29:34.551Z,2.60
2018-02-15T14:31:47.762Z,2.90
2018-02-15T14:34:01.113Z,2.80
2018-02-15T14:36:14.172Z,2.60
2018-02-15T14:38:27.382Z,2.90
2018-02-15T14:40:40.583Z,2.70
2018-02-15T14:42:53.790Z,2.50
2018-02-15T14:45:07.012Z,2.50
2018-02-15T14:47:20.205Z,2.40
2018-02-15T14:49:33.411Z,2.70
2018-02-15T14:51:46.617Z,2.70
2018-02-15T14:53:59.822Z,2.60
2018-02-15T14:56:13.030Z,2.60
2018-02-15T14:58:26.239Z,2.60
2018-02-15T15:00:39.424Z,2.70
2018-02-15T15:02:52.633Z,2.60
2018-02-15T15:05:05.841Z,2.40
2018-02-15T15:09:43.028Z,2.60
2018-02-15T15:10:43.139Z,2.30
2018-02-15T15:12:36.244Z,2.70
2018-02-15T15:13:36.295Z,2.40
2018-02-15T15:15:29.476Z,2.60
2018-02-15T15:16:29.523Z,2.30
2018-02-15T15:18:22.703Z,2.50
2018-02-15T15:19:22.754Z,2.70
2018-02-15T15:21:16.426Z,2.50
2018-02-15T15:22:16.487Z,2.50
2018-02-15T15:24:09.663Z,2.50
2018-02-15T15:25:09.704Z,2.40
2018-02-15T15:27:03.379Z,2.40
2018-02-15T15:28:03.426Z,2.70
2018-02-15T15:29:56.606Z,2.50
2018-02-15T15:30:56.654Z,2.40
2018-02-15T15:32:49.841Z,2.60
2018-02-15T15:33:49.889Z,2.50
2018-02-15T15:35:43.067Z,2.40
2018-02-15T15:36:43.116Z,2.50
2018-02-15T15:38:36.288Z,2.60
2018-02-15T15:39:36.338Z,2.60
2018-02-15T15:41:29.519Z,2.60
2018-02-15T15:42:29.568Z,2.50
2018-02-15T15:44:22.754Z,2.50
2018-02-15T15:45:22.797Z,2.60
2018-02-15T15:47:15.978Z,2.40
2018-02-15T15:48:16.026Z,2.50
2018-02-15T15:50:08.258Z,2.50
2018-02-15T15:51:08.301Z,2.40
2018-02-15T15:53:01.486Z,2.50
2018-02-15T15:54:01.860Z,2.50
2018-02-15T15:55:54.695Z,2.40
2018-02-15T15:56:54.742Z,2.40
2018-02-15T15:58:47.915Z,2.40
2018-02-15T15:59:47.968Z,2.60
2018-02-15T16:01:41.144Z,2.50
2018-02-15T16:02:41.194Z,2.70
2018-02-15T16:04:34.365Z,2.60
2018-02-15T16:05:34.410Z,2.70
2018-02-15T16:07:27.592Z,2.50
2018-02-15T16:08:27.640Z,2.40
2018-02-15T16:10:20.822Z,2.40
2018-02-15T16:11:20.871Z,2.50
2018-02-15T16:13:14.051Z,2.40
2018-02-15T16:14:14.099Z,2.70
2018-02-15T16:16:07.282Z,2.50
2018-02-15T16:17:07.331Z,2.30
2018-02-15T16:19:00.512Z,2.40
2018-02-15T16:20:00.560Z,2.50
2018-02-15T16:21:53.745Z,2.40
2018-02-15T16:22:53.787Z,2.30
2018-02-15T16:24:46.976Z,2.30
2018-02-15T16:25:47.022Z,2.60
2018-02-15T16:27:40.205Z,2.30
2018-02-15T16:28:40.254Z,2.70
2018-02-15T16:30:33.436Z,2.40
2018-02-15T16:31:33.486Z,2.40
2018-02-15T16:33:26.665Z,2.50
2018-02-15T16:34:26.713Z,2.40
2018-02-15T16:36:19.894Z,2.40
2018-02-15T16:37:19.947Z,2.40
2018-02-15T16:39:13.124Z,2.10
2018-02-15T16:40:13.173Z,2.10
2018-02-15T16:42:06.356Z,2.20
2018-02-15T16:43:06.402Z,2.40
2018-02-15T16:44:59.584Z,2.30
2018-02-15T16:45:59.631Z,2.20
2018-02-15T16:47:52.812Z,2.50
2018-02-15T16:48:52.861Z,2.50
2018-02-15T16:50:46.043Z,2.60
2018-02-15T16:51:46.081Z,2.60
2018-02-15T16:53:39.286Z,2.30
2018-02-15T16:54:39.318Z,2.40
2018-02-15T16:56:32.505Z,2.50
2018-02-15T16:57:32.542Z,2.10
2018-02-15T16:59:25.730Z,2.30
2018-02-15T17:00:25.784Z,2.40
2018-02-15T17:02:18.964Z,2.10
2018-02-15T17:03:19.017Z,2.30
2018-02-15T17:05:12.192Z,2.20
2018-02-15T17:06:12.250Z,2.10
2018-02-15T17:08:05.427Z,2.20
2018-02-15T17:09:05.473Z,2.40
2018-02-15T17:10:58.651Z,2.40
2018-02-15T17:11:58.700Z,2.10
2018-02-15T17:13:51.878Z,2.50
2018-02-15T17:14:51.928Z,2.50
2018-02-15T17:16:45.166Z,2.30
2018-02-15T17:17:45.159Z,2.40
2018-02-15T17:19:38.342Z,2.30
2018-02-15T17:20:38.382Z,2.40
2018-02-15T17:22:31.571Z,2.30
2018-02-15T17:23:31.618Z,2.50
2018-02-15T17:25:24.807Z,2.50
2018-02-15T17:26:24.847Z,2.40
2018-02-15T17:28:18.028Z,2.40
2018-02-15T17:29:18.076Z,2.10
2018-02-15T17:31:11.259Z,2.40
2018-02-15T17:32:11.307Z,2.20
2018-02-15T17:34:04.484Z,2.10
2018-02-15T17:35:04.537Z,2.60
2018-02-15T17:36:57.718Z,2.50
2018-02-15T17:37:57.766Z,2.40
2018-02-15T17:39:50.947Z,2.10
2018-02-15T17:40:50.997Z,2.30